Time;durP1;ratioP1;P1;durP2;ratioP2;P2;SDS_P1;SDS_P2;PMS_P1;PMS_P2;Temp;Humidity;BMP_temperature;BMP_pressure;BME280_temperature;BME280_humidity;BME280_pressure;Samples;Min_cycle;Max_cycle;Signal;HPM_P1;HPM_P2
2023/05/12 00:01:47;;;;;;;7.57;5.22;;;12.60;99.90;;;;;;4975293;28;20049;-74
2023/05/12 00:04:20;;;;;;;6.68;5.05;;;12.60;99.90;;;;;;4993056;28;20054;-75
2023/05/12 00:06:51;;;;;;;9.35;5.82;;;12.60;99.90;;;;;;4972027;28;20057;-71
2023/05/12 00:09:18;;;;;;;7.35;5.30;;;12.70;99.90;;;;;;4977693;28;20051;-77
2023/05/12 00:11:47;;;;;;;7.22;5.20;;;12.70;99.90;;;;;;4977648;28;20121;-74
2023/05/12 00:14:20;;;;;;;6.47;4.75;;;12.70;99.90;;;;;;4993014;28;20054;-75
2023/05/12 00:16:50;;;;;;;8.45;5.10;;;12.70;99.90;;;;;;4983725;28;20046;-75
2023/05/12 00:19:21;;;;;;;6.88;5.10;;;12.60;99.90;;;;;;4984212;28;20054;-75
2023/05/12 00:21:48;;;;;;;10.15;5.10;;;12.60;99.90;;;;;;4989049;28;20052;-73
2023/05/12 00:24:18;;;;;;;8.05;5.00;;;12.60;99.90;;;;;;4984150;28;20058;-71
2023/05/12 00:26:48;;;;;;;6.45;4.50;;;12.60;99.90;;;;;;4960631;28;20047;-71
2023/05/12 00:29:16;;;;;;;5.97;5.03;;;12.60;99.90;;;;;;4974059;28;20122;-73
2023/05/12 00:32:04;;;;;;;7.40;5.05;;;12.70;99.90;;;;;;4965322;28;20455;-75
2023/05/12 00:34:34;;;;;;;6.00;5.20;;;12.70;99.90;;;;;;4965512;28;20976;-75
2023/05/12 00:37:01;;;;;;;8.05;5.18;;;12.70;99.90;;;;;;4968077;28;20082;-75
2023/05/12 00:39:28;;;;;;;7.80;5.43;;;12.80;99.90;;;;;;4984163;28;20046;-76
2023/05/12 00:42:00;;;;;;;6.30;4.80;;;12.70;99.90;;;;;;4990363;28;20051;-75
2023/05/12 00:44:28;;;;;;;6.63;5.00;;;12.80;99.90;;;;;;4944397;28;20134;-76
2023/05/12 00:46:58;;;;;;;8.20;5.20;;;12.80;99.90;;;;;;4980976;28;20074;-71
2023/05/12 00:49:26;;;;;;;6.47;5.28;;;12.70;99.90;;;;;;5020862;22;20045;-74
2023/05/12 00:51:56;;;;;;;6.70;5.22;;;12.70;99.90;;;;;;5016116;28;20506;-73
2023/05/12 00:54:25;;;;;;;7.77;5.20;;;12.80;99.90;;;;;;5000863;28;20140;-74
2023/05/12 00:56:53;;;;;;;7.53;5.25;;;12.80;99.90;;;;;;4999408;28;20046;-75
2023/05/12 00:59:20;;;;;;;6.28;5.05;;;12.80;99.90;;;;;;5019320;28;20050;-76
2023/05/12 01:01:49;;;;;;;7.13;4.85;;;12.80;99.90;;;;;;5035040;28;20575;-71
2023/05/12 01:04:17;;;;;;;7.22;5.03;;;12.80;99.90;;;;;;5002783;28;20133;-75
2023/05/12 01:06:51;;;;;;;6.65;4.72;;;12.80;99.90;;;;;;5005537;28;20064;-72
2023/05/12 01:09:19;;;;;;;6.47;5.22;;;12.70;99.90;;;;;;5005424;28;20109;-77
2023/05/12 01:11:49;;;;;;;6.75;5.10;;;12.70;99.90;;;;;;5020777;28;20045;-71
2023/05/12 01:14:16;;;;;;;8.20;4.68;;;12.70;99.90;;;;;;4985172;28;20469;-72
2023/05/12 01:16:57;;;;;;;7.72;5.10;;;12.70;99.90;;;;;;4997149;28;20045;-72
2023/05/12 01:19:50;;;;;;;8.13;5.05;;;12.60;99.90;;;;;;4990955;28;20501;-70
2023/05/12 01:22:20;;;;;;;7.72;5.50;;;12.70;99.90;;;;;;4989708;28;20392;-72
2023/05/12 01:24:50;;;;;;;7.97;5.07;;;12.60;99.90;;;;;;5002207;23;20046;-75
2023/05/12 01:27:19;;;;;;;6.95;5.40;;;12.70;99.90;;;;;;5006566;28;20217;-74
2023/05/12 01:29:47;;;;;;;6.53;5.00;;;12.70;99.90;;;;;;5018092;28;20060;-75
2023/05/12 01:32:15;;;;;;;6.57;5.25;;;12.70;99.90;;;;;;5018240;28;20117;-70
2023/05/12 01:34:45;;;;;;;;;;;12.60;99.90;;;;;;5010111;28;20042;-71
2023/05/12 01:37:15;;;;;;;8.02;5.25;;;12.60;99.90;;;;;;4996350;28;19922;-72
2023/05/12 01:39:43;;;;;;;6.90;5.25;;;12.60;99.90;;;;;;4991350;28;20064;-75
2023/05/12 01:42:10;;;;;;;7.03;5.10;;;12.60;99.90;;;;;;4977024;28;20046;-76
2023/05/12 01:44:38;;;;;;;6.93;5.25;;;12.50;99.90;;;;;;5005043;28;20046;-75
2023/05/12 01:47:10;;;;;;;6.78;5.40;;;12.50;99.90;;;;;;5014974;28;20553;-74
2023/05/12 01:49:37;;;;;;;7.70;5.15;;;12.50;99.90;;;;;;4970298;28;20058;-76
2023/05/12 01:52:05;;;;;;;8.98;5.30;;;12.50;99.90;;;;;;5016782;28;20616;-73
2023/05/12 01:54:35;;;;;;;7.80;5.35;;;12.50;99.90;;;;;;4985280;28;20046;-75
2023/05/12 01:57:17;;;;;;;7.93;5.18;;;12.50;99.90;;;;;;4994426;28;20101;-72
2023/05/12 01:59:47;;;;;;;6.68;5.00;;;12.50;99.90;;;;;;4998036;28;20050;-75
2023/05/12 02:02:15;;;;;;;7.35;5.28;;;12.30;99.90;;;;;;4975894;28;20050;-71
2023/05/12 02:04:43;;;;;;;8.48;5.28;;;12.30;99.90;;;;;;4996922;28;20155;-75
2023/05/12 02:07:15;;;;;;;6.82;5.15;;;12.30;99.90;;;;;;5000962;23;20050;-73
2023/05/12 02:09:43;;;;;;;7.53;5.10;;;12.20;99.90;;;;;;4984194;28;20050;-75
2023/05/12 02:12:13;;;;;;;7.15;5.40;;;12.20;99.90;;;;;;5003963;28;20046;-74
2023/05/12 02:14:40;;;;;;;8.48;5.35;;;12.20;99.90;;;;;;5000648;28;20054;-76
2023/05/12 02:17:10;;;;;;;7.90;4.90;;;12.30;99.90;;;;;;5015188;28;20112;-75
2023/05/12 02:19:37;;;;;;;9.38;5.68;;;12.20;99.90;;;;;;4998631;28;20081;-77
2023/05/12 02:22:05;;;;;;;8.13;5.50;;;12.10;99.90;;;;;;4995289;28;20074;-74
2023/05/12 02:24:32;;;;;;;7.13;5.60;;;12.10;99.90;;;;;;4992922;28;20065;-76
2023/05/12 02:27:00;;;;;;;7.57;5.22;;;12.10;99.90;;;;;;5012559;28;20105;-75
2023/05/12 02:29:27;;;;;;;7.80;5.85;;;12.10;99.90;;;;;;4993192;28;20419;-74
2023/05/12 02:31:55;;;;;;;7.53;5.10;;;12.20;99.90;;;;;;5000941;28;20042;-74
2023/05/12 02:34:22;;;;;;;7.03;5.45;;;12.30;99.90;;;;;;5006305;28;20051;-75
2023/05/12 02:36:57;;;;;;;7.03;5.03;;;12.30;99.90;;;;;;4999953;28;20046;-75
2023/05/12 02:39:33;;;;;;;7.22;5.60;;;12.40;99.90;;;;;;5000674;28;20050;-73
2023/05/12 02:42:10;;;;;;;8.43;5.25;;;12.40;99.90;;;;;;5001187;28;20057;-71
2023/05/12 02:44:39;;;;;;;5.72;4.68;;;12.30;99.90;;;;;;4999426;28;20050;-76
2023/05/12 02:47:07;;;;;;;6.20;5.18;;;12.30;99.90;;;;;;4984080;28;20152;-76
2023/05/12 02:49:38;;;;;;;6.50;5.13;;;12.30;99.90;;;;;;4985570;28;20046;-74
2023/05/12 02:52:08;;;;;;;10.18;6.10;;;12.40;99.90;;;;;;4997294;28;20411;-77
2023/05/12 02:54:40;;;;;;;7.53;5.35;;;12.40;99.90;;;;;;5005189;28;20038;-75
2023/05/12 02:57:09;;;;;;;7.05;5.53;;;12.30;99.90;;;;;;4969574;28;20058;-76
2023/05/12 03:00:11;;;;;;;7.95;5.45;;;12.30;99.90;;;;;;5007641;28;20056;-78
2023/05/12 03:02:39;;;;;;;7.22;5.50;;;12.40;99.90;;;;;;5018520;28;20073;-77
2023/05/12 03:05:10;;;;;;;8.38;6.18;;;12.30;99.90;;;;;;5019001;28;20474;-78
2023/05/12 03:07:38;;;;;;;7.07;5.45;;;12.30;99.90;;;;;;5019919;28;20109;-77
2023/05/12 03:10:09;;;;;;;7.35;6.00;;;12.40;99.90;;;;;;5001859;28;20089;-76
2023/05/12 03:12:36;;;;;;;9.35;5.85;;;12.40;99.90;;;;;;4983989;28;20085;-76
2023/05/12 03:15:05;;;;;;;9.73;6.05;;;12.30;99.90;;;;;;5016241;28;20104;-76
2023/05/12 03:17:33;;;;;;;10.50;6.10;;;12.30;99.90;;;;;;4974410;28;20076;-74
2023/05/12 03:20:02;;;;;;;8.80;5.93;;;12.40;99.90;;;;;;5016283;28;20104;-75
2023/05/12 03:22:31;;;;;;;10.35;5.70;;;12.30;99.90;;;;;;4980983;28;20607;-76
2023/05/12 03:24:58;;;;;;;7.15;5.50;;;12.30;99.90;;;;;;4983778;28;20054;-74
2023/05/12 03:27:25;;;;;;;6.90;5.60;;;12.40;99.90;;;;;;4982348;28;20069;-76
2023/05/12 03:29:56;;;;;;;7.93;5.32;;;12.40;99.90;;;;;;4999529;28;20122;-76
2023/05/12 03:32:23;;;;;;;8.48;5.57;;;12.40;99.90;;;;;;4979929;28;20400;-73
2023/05/12 03:34:51;;;;;;;9.55;6.00;;;12.40;99.90;;;;;;5001498;28;20065;-75
2023/05/12 03:37:23;;;;;;;9.07;5.20;;;12.40;99.90;;;;;;5001598;28;20091;-78
2023/05/12 03:39:55;;;;;;;6.82;5.68;;;12.40;99.90;;;;;;4999824;28;20053;-73
2023/05/12 03:42:24;;;;;;;7.88;5.28;;;12.40;99.90;;;;;;4985179;28;20060;-75
2023/05/12 03:44:58;;;;;;;8.43;5.93;;;12.40;99.90;;;;;;5019189;28;20045;-76
2023/05/12 03:47:28;;;;;;;9.32;5.35;;;12.30;99.90;;;;;;4982313;28;20112;-78
2023/05/12 03:49:57;;;;;;;7.53;5.68;;;12.40;99.90;;;;;;4994339;28;20062;-72
2023/05/12 03:52:25;;;;;;;6.57;4.95;;;12.30;99.90;;;;;;4999789;28;20050;-72
2023/05/12 03:54:54;;;;;;;6.88;5.88;;;12.40;99.90;;;;;;4989799;28;20049;-77
2023/05/12 03:57:22;;;;;;;7.53;5.63;;;12.40;99.90;;;;;;5001926;28;20128;-74
2023/05/12 03:59:50;;;;;;;7.78;5.35;;;12.40;99.90;;;;;;5000407;28;20093;-75
2023/05/12 04:02:18;;;;;;;9.18;4.95;;;12.40;99.90;;;;;;4999041;28;20079;-74
2023/05/12 04:04:45;;;;;;;8.48;5.88;;;12.40;99.90;;;;;;4986052;28;20410;-77
2023/05/12 04:07:13;;;;;;;7.78;5.60;;;12.40;99.90;;;;;;5004876;28;20053;-75
2023/05/12 04:09:47;;;;;;;8.40;5.55;;;12.50;99.90;;;;;;4974096;28;20073;-77
2023/05/12 04:12:15;;;;;;;7.25;5.70;;;12.50;99.90;;;;;;5015436;28;20093;-73
2023/05/12 04:14:45;;;;;;;7.40;5.60;;;12.50;99.90;;;;;;4983978;28;20045;-75
2023/05/12 04:17:13;;;;;;;7.75;5.18;;;12.50;99.90;;;;;;4985577;28;20534;-76
2023/05/12 04:19:40;;;;;;;7.63;5.40;;;12.40;99.90;;;;;;5011135;28;20080;-71
2023/05/12 04:22:10;;;;;;;7.72;5.53;;;12.50;99.90;;;;;;4984722;28;20050;-74
2023/05/12 04:24:38;;;;;;;7.85;5.43;;;12.50;99.90;;;;;;4984442;28;20046;-74
2023/05/12 04:27:08;;;;;;;8.20;5.72;;;12.50;99.90;;;;;;4979093;28;20058;-74
2023/05/12 04:29:37;;;;;;;6.20;4.88;;;12.60;99.90;;;;;;4978351;28;20053;-74
2023/05/12 04:32:06;;;;;;;8.88;5.57;;;12.60;99.90;;;;;;5009303;28;20092;-72
2023/05/12 04:34:41;;;;;;;8.07;4.82;;;12.60;99.90;;;;;;4988292;22;20072;-76
2023/05/12 04:37:10;;;;;;;13.48;5.55;;;12.70;99.90;;;;;;4965500;28;20047;-72
2023/05/12 04:39:37;;;;;;;6.35;5.20;;;12.70;99.90;;;;;;4960740;28;20084;-73
2023/05/12 04:42:11;;;;;;;6.45;4.93;;;12.80;99.90;;;;;;4976216;28;20424;-75
2023/05/12 04:44:38;;;;;;;6.80;4.82;;;12.70;99.90;;;;;;4959196;28;20137;-74
2023/05/12 04:47:06;;;;;;;8.70;5.00;;;12.80;99.90;;;;;;4960052;28;20538;-75
2023/05/12 04:49:33;;;;;;;6.13;4.72;;;12.80;99.90;;;;;;4961422;28;20042;-77
2023/05/12 04:52:01;;;;;;;7.50;4.82;;;12.80;99.90;;;;;;4968824;28;20080;-76
2023/05/12 04:54:31;;;;;;;7.75;5.35;;;12.90;99.90;;;;;;4969339;28;20105;-71
2023/05/12 04:57:05;;;;;;;8.25;4.82;;;12.90;99.90;;;;;;4959879;28;20128;-71
2023/05/12 04:59:32;;;;;;;7.00;5.20;;;13.10;99.90;;;;;;4973282;28;20046;-74
2023/05/12 05:02:00;;;;;;;7.15;5.28;;;13.00;99.90;;;;;;4978508;28;20069;-75
2023/05/12 05:04:27;;;;;;;6.40;5.30;;;13.10;99.90;;;;;;4968623;28;20072;-76
2023/05/12 05:06:54;;;;;;;7.43;5.50;;;13.10;99.90;;;;;;5000783;28;20116;-76
2023/05/12 05:09:48;;;;;;;7.82;5.18;;;13.10;99.90;;;;;;4968247;28;20050;-77
2023/05/12 05:12:59;;;;;;;11.45;7.82;;;13.10;99.90;;;;;;4976351;28;20046;-76
2023/05/12 05:16:18;;;;;;;40.10;23.70;;;13.30;99.90;;;;;;4998158;28;20399;-78
2023/05/12 05:19:43;;;;;;;44.13;27.67;;;13.40;99.90;;;;;;4998474;28;20053;-80
2023/05/12 05:23:15;;;;;;;34.78;22.13;;;13.50;99.90;;;;;;4995825;28;20058;-78
2023/05/12 05:26:07;;;;;;;53.97;34.42;;;13.60;99.90;;;;;;4994913;28;20053;-77
2023/05/12 05:29:12;;;;;;;11.63;8.90;;;13.80;99.90;;;;;;4974398;28;20051;-73
2023/05/12 05:32:02;;;;;;;8.07;5.28;;;13.80;99.90;;;;;;4969734;28;20554;-75
2023/05/12 05:34:29;;;;;;;7.53;5.03;;;13.60;99.90;;;;;;5004083;28;20061;-79
2023/05/12 05:36:58;;;;;;;6.50;4.53;;;13.30;99.90;;;;;;4964756;28;20050;-74
2023/05/12 05:39:29;;;;;;;6.03;4.65;;;13.30;99.90;;;;;;4972888;28;20408;-80
2023/05/12 05:41:57;;;;;;;7.07;4.65;;;13.40;99.90;;;;;;4995487;28;20285;-75
2023/05/12 05:44:28;;;;;;;7.28;4.70;;;13.50;99.90;;;;;;4997571;28;20076;-75
2023/05/12 05:47:09;;;;;;;10.20;5.30;;;13.50;99.90;;;;;;4988479;28;20082;-77
2023/05/12 05:49:48;;;;;;;6.50;5.32;;;13.60;99.90;;;;;;5002218;28;20066;-76
2023/05/12 05:52:24;;;;;;;7.88;5.53;;;13.60;99.90;;;;;;4987347;28;20078;-76
2023/05/12 05:54:52;;;;;;;7.50;5.22;;;13.70;99.90;;;;;;4969391;28;20046;-75
2023/05/12 05:57:27;;;;;;;6.22;4.93;;;13.70;99.90;;;;;;4971382;28;20057;-79
2023/05/12 06:00:14;;;;;;;7.93;5.05;;;13.70;99.90;;;;;;4984381;28;20051;-75
2023/05/12 06:03:28;;;;;;;5.75;4.40;;;13.70;99.90;;;;;;4982367;28;20445;-75
2023/05/12 06:06:25;;;;;;;19.83;12.65;;;13.60;99.90;;;;;;5004600;28;20137;-76
2023/05/12 06:08:54;;;;;;;8.48;5.53;;;13.80;99.90;;;;;;5006906;28;20101;-76
2023/05/12 06:11:25;;;;;;;6.00;4.15;;;13.80;99.90;;;;;;4960521;28;20074;-81
2023/05/12 06:14:11;;;;;;;6.80;4.25;;;13.90;99.90;;;;;;4975549;28;20050;-76
2023/05/12 06:16:43;;;;;;;6.95;4.40;;;13.80;99.90;;;;;;5057874;22;20057;-75
2023/05/12 06:19:24;;;;;;;7.30;4.03;;;13.70;99.90;;;;;;5015399;28;20049;-77
2023/05/12 06:21:56;;;;;;;6.47;3.80;;;13.70;99.90;;;;;;5012441;28;20113;-79
2023/05/12 06:24:46;;;;;;;6.18;4.38;;;13.90;99.90;;;;;;5011132;28;20176;-79
2023/05/12 06:27:14;;;;;;;6.82;4.45;;;14.00;99.90;;;;;;5029091;28;20050;-80
2023/05/12 06:29:52;;;;;;;6.10;4.22;;;14.10;99.90;;;;;;5015365;28;20080;-78
2023/05/12 06:32:47;;;;;;;5.55;4.25;;;14.10;99.90;;;;;;5010963;28;20066;-78
2023/05/12 06:35:35;;;;;;;6.05;4.05;;;14.10;99.90;;;;;;4988207;28;20062;-79
2023/05/12 06:38:18;;;;;;;9.40;4.40;;;14.20;99.90;;;;;;4967535;28;20076;-77
2023/05/12 06:40:45;;;;;;;5.32;4.00;;;14.20;99.90;;;;;;4977272;28;20089;-80
2023/05/12 06:43:28;;;;;;;9.32;3.95;;;14.30;99.90;;;;;;5031836;28;20045;-77
2023/05/12 06:46:13;;;;;;;5.57;3.65;;;14.50;99.90;;;;;;5033151;28;20054;-75
2023/05/12 06:49:05;;;;;;;8.23;4.20;;;14.70;99.90;;;;;;5017916;28;20045;-79
2023/05/12 06:51:48;;;;;;;5.18;3.85;;;14.80;99.90;;;;;;5023132;28;20100;-75
2023/05/12 06:54:21;;;;;;;6.15;4.03;;;14.80;99.90;;;;;;5031560;28;20076;-81
2023/05/12 06:57:17;;;;;;;6.80;3.47;;;14.80;99.90;;;;;;5021448;28;20050;-76
2023/05/12 06:59:59;;;;;;;6.45;4.07;;;14.60;99.90;;;;;;4999671;28;20072;-79
2023/05/12 07:02:46;;;;;;;5.93;3.90;;;14.50;99.90;;;;;;5031861;28;20081;-75
2023/05/12 07:05:27;;;;;;;6.40;3.83;;;14.70;99.90;;;;;;5009456;28;20049;-78
2023/05/12 07:08:19;;;;;;;5.80;3.53;;;14.80;99.90;;;;;;5009905;28;20049;-80
2023/05/12 07:10:50;;;;;;;8.48;3.92;;;14.80;99.90;;;;;;5048404;28;20041;-76
2023/05/12 07:13:56;;;;;;;4.75;3.45;;;14.80;99.90;;;;;;5049859;28;20050;-76
2023/05/12 07:16:28;;;;;;;6.00;3.38;;;14.90;99.90;;;;;;5047137;28;20045;-75
2023/05/12 07:19:10;;;;;;;7.82;3.80;;;14.80;99.90;;;;;;4987046;28;20061;-78
2023/05/12 07:21:53;;;;;;;7.63;4.20;;;15.00;99.90;;;;;;5032097;28;20054;-75
2023/05/12 07:24:23;;;;;;;5.95;3.97;;;15.20;99.90;;;;;;5016861;23;20077;-76
2023/05/12 07:27:19;;;;;;;5.50;3.95;;;15.30;99.90;;;;;;4997184;28;20066;-75
2023/05/12 07:29:47;;;;;;;5.47;3.45;;;15.30;99.90;;;;;;4997491;28;20046;-78
2023/05/12 07:32:31;;;;;;;5.20;3.70;;;15.40;99.90;;;;;;4968091;28;20062;-78
2023/05/12 07:35:06;;;;;;;6.65;4.10;;;15.30;99.90;;;;;;5028113;28;20181;-73
2023/05/12 07:37:37;;;;;;;5.70;3.78;;;15.50;99.90;;;;;;4970034;28;20060;-79
2023/05/12 07:40:23;;;;;;;5.43;3.58;;;15.50;99.90;;;;;;4959263;28;20066;-76
2023/05/12 07:42:51;;;;;;;7.15;3.80;;;15.60;99.90;;;;;;4994457;28;20052;-78
2023/05/12 07:45:32;;;;;;;5.78;3.95;;;15.80;99.90;;;;;;5010653;28;20056;-78
2023/05/12 07:48:01;;;;;;;5.57;3.72;;;15.80;99.90;;;;;;4996108;28;20050;-77
2023/05/12 07:50:31;;;;;;;4.88;3.60;;;15.80;99.90;;;;;;4992551;28;20056;-77
2023/05/12 07:53:01;;;;;;;5.78;3.92;;;15.80;99.90;;;;;;5014249;28;20043;-76
2023/05/12 07:55:29;;;;;;;6.38;4.47;;;15.80;99.90;;;;;;5007506;28;20058;-79
2023/05/12 07:58:02;;;;;;;6.47;3.90;;;16.00;99.90;;;;;;4989585;28;20050;-74
2023/05/12 08:00:53;;;;;;;5.70;3.88;;;16.20;99.90;;;;;;4958758;28;20082;-79
2023/05/12 08:03:39;;;;;;;6.70;4.75;;;16.00;99.90;;;;;;4993857;28;20053;-78
2023/05/12 08:06:08;;;;;;;8.20;4.80;;;15.80;99.90;;;;;;5008285;28;20054;-78
2023/05/12 08:08:43;;;;;;;9.65;4.22;;;15.90;99.90;;;;;;4988800;28;20056;-78
2023/05/12 08:11:42;;;;;;;6.80;4.00;;;15.90;99.90;;;;;;4991168;28;20050;-74
2023/05/12 08:14:21;;;;;;;6.55;4.07;;;15.90;99.90;;;;;;4954194;28;20077;-77
2023/05/12 08:17:17;;;;;;;15.27;5.10;;;16.30;99.90;;;;;;5002152;28;20035;-75
2023/05/12 08:19:45;;;;;;;11.05;4.43;;;16.50;99.90;;;;;;4974511;28;20058;-75
2023/05/12 08:22:33;;;;;;;7.97;4.47;;;16.60;99.90;;;;;;4973710;28;20073;-77
2023/05/12 08:25:01;;;;;;;7.22;4.50;;;16.40;99.90;;;;;;5001810;28;20122;-76
2023/05/12 08:27:33;;;;;;;6.38;4.45;;;16.60;99.90;;;;;;5013557;28;20500;-78
2023/05/12 08:30:02;;;;;;;7.55;4.30;;;16.60;99.90;;;;;;4988741;28;20495;-77
2023/05/12 08:32:48;;;;;;;7.68;4.40;;;16.60;99.90;;;;;;5025163;28;20078;-76
2023/05/12 08:35:35;;;;;;;7.63;4.88;;;17.00;99.90;;;;;;4967783;28;20412;-78
2023/05/12 08:38:33;;;;;;;7.10;5.40;;;17.10;99.90;;;;;;5007865;28;20073;-80
2023/05/12 08:41:40;;;;;;;8.05;4.55;;;17.10;99.90;;;;;;4990393;28;20137;-75
2023/05/12 08:45:28;;;;;;;6.07;4.70;;;17.10;99.90;;;;;;4974139;28;20038;-75
2023/05/12 08:48:34;;;;;;;7.55;5.45;;;17.20;99.90;;;;;;5106903;23;20091;-79
2023/05/12 08:51:15;;;;;;;8.00;4.93;;;17.10;99.90;;;;;;5029486;22;20037;-74
2023/05/12 08:54:22;;;;;;;9.40;5.43;;;17.00;99.90;;;;;;5012569;28;20052;-73
2023/05/12 08:57:23;;;;;;;6.43;5.13;;;16.90;99.90;;;;;;5011030;28;20454;-77
2023/05/12 09:00:39;;;;;;;7.32;4.88;;;17.20;99.90;;;;;;5008503;28;20046;-80
2023/05/12 09:03:42;;;;;;;6.82;4.72;;;17.10;99.90;;;;;;5000700;28;20046;-77
2023/05/12 09:06:23;;;;;;;7.82;5.38;;;17.20;99.90;;;;;;5040802;28;20053;-76
2023/05/12 09:09:18;;;;;;;6.90;4.80;;;17.20;99.90;;;;;;5001151;28;20057;-74
2023/05/12 09:12:01;;;;;;;7.28;4.85;;;17.30;99.90;;;;;;5008321;28;20054;-74
2023/05/12 09:14:42;;;;;;;7.03;4.70;;;17.50;99.90;;;;;;4997889;28;20046;-76
2023/05/12 09:17:19;;;;;;;7.78;4.85;;;17.80;99.90;;;;;;5003538;28;20050;-73
2023/05/12 09:20:10;;;;;;;8.18;5.40;;;17.60;99.90;;;;;;5012343;28;20112;-79
2023/05/12 09:23:16;;;;;;;6.90;4.57;;;17.80;99.90;;;;;;5006526;28;20511;-79
2023/05/12 09:29:35;;;;;;;38.83;7.68;;;18.10;99.90;;;;;;5016424;28;20099;-78
2023/05/12 09:32:33;;;;;;;8.02;4.55;;;18.20;99.90;;;;;;4998590;28;20136;-80
2023/05/12 09:35:47;;;;;;;8.77;4.70;;;18.10;99.90;;;;;;5018446;28;20079;-74
2023/05/12 09:38:33;;;;;;;7.18;5.00;;;18.30;99.90;;;;;;5020047;28;20077;-83
2023/05/12 09:41:29;;;;;;;18.83;6.15;;;18.20;99.90;;;;;;5035632;28;20134;-78
2023/05/12 09:44:28;;;;;;;6.88;4.63;;;18.20;99.90;;;;;;4999278;28;20046;-74
2023/05/12 09:47:22;;;;;;;6.72;4.70;;;18.30;99.90;;;;;;4996104;28;20081;-74
2023/05/12 09:50:23;;;;;;;10.55;6.40;;;18.20;99.90;;;;;;5019966;22;20053;-76
2023/05/12 09:53:17;;;;;;;7.38;5.03;;;18.90;99.90;;;;;;4983311;28;20119;-83
2023/05/12 09:56:28;;;;;;;6.60;4.50;;;19.00;99.90;;;;;;4976132;28;20061;-79
2023/05/12 10:00:17;;;;;;;6.97;5.10;;;19.20;99.90;;;;;;5006219;28;20060;-82
2023/05/12 10:03:20;;;;;;;6.35;4.60;;;18.70;99.90;;;;;;4998097;28;20065;-79
2023/05/12 10:06:21;;;;;;;10.20;6.32;;;18.60;99.90;;;;;;4986652;28;20074;-79
2023/05/12 10:09:24;;;;;;;6.68;5.00;;;18.90;99.90;;;;;;4980201;28;20110;-81
2023/05/12 10:12:03;;;;;;;11.00;5.13;;;19.10;99.90;;;;;;5008486;28;20882;-76
2023/05/12 10:15:12;;;;;;;8.93;5.70;;;19.10;99.90;;;;;;5049626;22;20053;-80
2023/05/12 10:18:05;;;;;;;7.18;4.95;;;19.30;99.90;;;;;;5030476;28;20068;-77
2023/05/12 10:20:37;;;;;;;8.30;5.90;;;19.10;99.90;;;;;;5002739;28;20124;-84
2023/05/12 10:23:12;;;;;;;8.40;4.93;;;19.30;99.90;;;;;;5013049;28;20042;-74
2023/05/12 10:25:43;;;;;;;7.75;5.20;;;19.60;99.90;;;;;;5021519;28;20042;-78
2023/05/12 10:28:11;;;;;;;7.50;4.53;;;19.50;99.90;;;;;;5023353;28;20053;-80
2023/05/12 10:30:53;;;;;;;7.78;5.57;;;19.40;99.90;;;;;;5034996;28;20054;-78
2023/05/12 10:34:29;;;;;;;7.95;5.60;;;19.40;99.90;;;;;;5025915;28;20049;-73
2023/05/12 10:38:44;;;;;;;7.55;5.35;;;19.70;99.90;;;;;;5034868;28;20025;-76
2023/05/12 10:41:44;;;;;;;7.57;4.93;;;19.60;99.30;;;;;;5022861;28;20046;-81
2023/05/12 10:45:22;;;;;;;12.45;5.50;;;19.40;99.90;;;;;;5021811;28;20026;-74
2023/05/12 10:48:41;;;;;;;8.73;5.20;;;19.30;99.90;;;;;;5024711;28;20048;-86
2023/05/12 10:51:47;;;;;;;8.20;5.47;;;19.40;99.90;;;;;;5032557;28;20038;-81
2023/05/12 10:55:52;;;;;;;7.47;5.65;;;19.70;99.70;;;;;;5015145;28;20051;-74
2023/05/12 11:00:17;;;;;;;7.72;5.05;;;20.30;99.90;;;;;;4980112;28;20058;-77
2023/05/12 11:03:58;;;;;;;6.60;4.97;;;20.00;96.70;;;;;;4979645;28;20035;-76
2023/05/12 11:08:07;;;;;;;7.32;5.47;;;19.90;98.80;;;;;;4960006;29;20042;-78
2023/05/12 11:23:33;;;;;;;7.05;4.88;;;20.40;99.50;;;;;;4845960;29;20077;-85
2023/05/12 11:27:00;;;;;;;7.47;5.00;;;20.70;99.80;;;;;;4845643;29;20061;-75
2023/05/12 11:30:10;;;;;;;6.47;4.75;;;20.80;99.30;;;;;;4846522;29;20066;-78
2023/05/12 11:33:37;;;;;;;8.45;4.80;;;20.60;99.30;;;;;;4838706;29;20051;-76
2023/05/12 11:39:00;;;;;;;7.88;5.22;;;20.50;99.40;;;;;;5058853;23;20045;-76
2023/05/12 11:42:20;;;;;;;7.82;5.45;;;20.20;99.90;;;;;;5006127;28;20042;-77
2023/05/12 11:45:25;;;;;;;11.82;5.85;;;20.30;99.90;;;;;;5037564;28;20062;-77
2023/05/12 11:49:14;;;;;;;6.68;5.05;;;20.20;98.80;;;;;;5038182;28;20034;-75
2023/05/12 11:53:14;;;;;;;6.82;4.68;;;20.40;99.50;;;;;;5037784;28;20069;-74
2023/05/12 11:57:15;;;;;;;6.88;5.00;;;21.10;98.00;;;;;;5043727;28;20030;-75
2023/05/12 12:00:58;;;;;;;;;;;21.00;97.70;;;;;;5058242;28;20072;-78
2023/05/12 12:04:09;;;;;;;9.27;4.90;;;20.80;97.70;;;;;;5039932;28;19921;-75
2023/05/12 12:07:17;;;;;;;12.60;4.85;;;21.00;97.20;;;;;;5024658;28;20045;-74
2023/05/12 12:10:37;;;;;;;8.88;5.45;;;20.70;97.40;;;;;;5034637;28;20034;-73
2023/05/12 12:14:46;;;;;;;7.35;4.78;;;21.20;96.70;;;;;;5033860;28;20046;-76
2023/05/12 12:17:38;;;;;;;7.72;4.97;;;21.70;94.50;;;;;;5049977;28;20042;-75
2023/05/12 12:20:10;;;;;;;;;;;21.70;95.00;;;;;;5040909;28;20063;-75
2023/05/12 12:24:05;;;;;;;7.18;5.03;;;21.80;95.20;;;;;;5053023;28;19921;-80
2023/05/12 12:28:25;;;;;;;8.07;5.13;;;22.20;93.70;;;;;;4827558;29;20051;-75
2023/05/12 12:35:25;;;;;;;7.18;4.45;;;22.60;92.40;;;;;;4884016;29;20099;-76
2023/05/12 12:39:10;;;;;;;7.28;4.70;;;22.60;91.00;;;;;;4882790;29;20098;-75
2023/05/12 12:43:51;;;;;;;7.07;4.28;;;22.70;91.60;;;;;;4757348;30;20094;-76
2023/05/12 12:50:40;;;;;;;7.22;4.30;;;22.30;91.50;;;;;;4913834;26;20092;-75
2023/05/12 12:53:09;;;;;;;10.27;5.65;;;22.30;90.90;;;;;;5074787;28;20076;-75
2023/05/12 13:21:19;;;;;;;7.28;3.80;;;20.80;92.90;;;;;;4994967;28;20098;-76
2023/05/12 13:25:20;;;;;;;8.02;3.92;;;20.90;93.20;;;;;;5021212;28;20066;-75
2023/05/12 13:29:08;;;;;;;6.67;3.70;;;20.80;93.50;;;;;;5000335;28;20094;-77
2023/05/12 13:32:25;;;;;;;6.95;3.85;;;20.60;92.90;;;;;;4940871;29;20056;-76
2023/05/12 13:35:33;;;;;;;6.35;3.85;;;21.30;92.40;;;;;;5880548;23;20065;-75
2023/05/12 13:39:22;;;;;;;6.93;3.97;;;21.30;91.40;;;;;;5029136;28;20034;-86
2023/05/12 13:42:09;;;;;;;6.47;3.65;;;21.00;92.00;;;;;;5044717;28;20049;-77
2023/05/12 13:45:16;;;;;;;6.18;3.40;;;21.70;91.50;;;;;;5011672;28;20061;-76
2023/05/12 13:48:39;;;;;;;8.57;3.63;;;22.30;89.50;;;;;;4992078;28;20056;-75
2023/05/12 13:51:44;;;;;;;5.75;3.53;;;20.50;92.10;;;;;;5042943;28;20048;-76
2023/05/12 13:54:58;;;;;;;4.63;3.15;;;19.90;93.50;;;;;;5039166;28;20037;-75
2023/05/12 13:58:13;;;;;;;6.93;3.72;;;19.80;94.60;;;;;;5036082;28;20036;-78
2023/05/12 14:01:40;;;;;;;5.47;3.42;;;19.70;94.70;;;;;;5042923;28;20037;-76
2023/05/12 14:05:04;;;;;;;5.80;3.65;;;19.80;95.20;;;;;;4982481;28;20058;-77
2023/05/12 14:08:38;;;;;;;6.88;3.45;;;19.90;95.50;;;;;;5001356;28;20049;-75
2023/05/12 14:11:58;;;;;;;5.80;4.03;;;19.90;95.20;;;;;;4965696;28;20078;-78
2023/05/12 14:15:18;;;;;;;4.60;2.88;;;20.70;94.30;;;;;;4985657;28;20099;-75
2023/05/12 14:19:00;;;;;;;7.97;3.30;;;23.50;90.20;;;;;;4994727;28;20075;-76
2023/05/12 14:22:38;;;;;;;5.43;3.30;;;24.70;86.80;;;;;;5001777;28;20037;-77
2023/05/12 14:25:36;;;;;;;6.90;2.88;;;25.50;82.50;;;;;;5036557;28;20188;-76
2023/05/12 14:28:06;;;;;;;5.38;3.45;;;25.60;82.70;;;;;;5050101;28;20057;-79
2023/05/12 14:30:47;;;;;;;6.32;3.05;;;25.80;79.70;;;;;;5033707;28;20041;-77
2023/05/12 14:34:18;;;;;;;6.78;2.67;;;24.50;83.50;;;;;;5037376;28;20054;-79
2023/05/12 14:37:05;;;;;;;4.72;2.35;;;25.60;78.80;;;;;;4995569;28;20038;-75
2023/05/12 14:40:09;;;;;;;5.68;3.08;;;21.60;86.20;;;;;;4994547;28;20096;-74
2023/05/12 14:42:38;;;;;;;8.70;3.42;;;20.30;91.00;;;;;;5010413;28;20539;-77
2023/05/12 14:45:20;;;;;;;8.65;3.03;;;19.90;91.80;;;;;;5014979;28;20682;-76
2023/05/12 14:48:06;;;;;;;6.88;3.83;;;19.70;92.80;;;;;;4978601;28;20062;-74
2023/05/12 14:50:36;;;;;;;5.70;3.63;;;19.80;93.50;;;;;;4992501;28;20045;-76
2023/05/12 14:53:30;;;;;;;6.93;3.35;;;19.60;94.20;;;;;;5013442;28;20038;-78
2023/05/12 14:56:25;;;;;;;8.25;3.65;;;19.70;94.60;;;;;;5015398;28;20120;-76
2023/05/12 14:58:57;;;;;;;5.93;3.50;;;19.70;94.20;;;;;;4986395;28;20109;-77
2023/05/12 15:01:24;;;;;;;4.60;2.90;;;19.80;94.00;;;;;;4998968;28;20061;-76
2023/05/12 15:03:53;;;;;;;5.30;3.40;;;20.50;93.20;;;;;;4986902;28;20061;-77
2023/05/12 15:06:26;;;;;;;7.53;3.53;;;20.00;93.80;;;;;;4989198;28;20058;-76
2023/05/12 15:08:59;;;;;;;5.20;3.08;;;19.70;94.80;;;;;;4999927;28;20062;-76
2023/05/12 15:11:27;;;;;;;4.97;3.10;;;19.50;94.90;;;;;;4997497;28;20046;-78
2023/05/12 15:13:54;;;;;;;8.32;3.92;;;19.40;95.10;;;;;;4997664;28;20054;-71
2023/05/12 15:16:24;;;;;;;6.97;3.78;;;19.20;94.90;;;;;;4982271;28;20141;-76
2023/05/12 15:18:52;;;;;;;6.47;3.60;;;19.10;95.20;;;;;;4994374;28;20050;-76